New Baltimore, NY (12124)

4:57 PM EDT on July 27, 2016 (GMT -0400)
Stuyvesant | | Change Station

Elev 125 ft 42.40 °N, 73.77 °W | Updated 11 minutes ago

Partly Cloudy
Partly Cloudy
101.1 °F
Feels Like 105 °F
N
2.2
Wind Variable Wind from West

Today
High -- | Low -- °F
--% Chance of Precip.
Yesterday
High -- | Low -- °F
Precip. -- in
Pressure 29.89 in
Visibility 10.0 miles
Clouds Few 7000 ft
Heat Index 105 °F
Dew Point 65 °F
Humidity 31%
Rainfall 0.00 in
Snow Depth Not available.
5:42 AM 8:19 PM
Last Quarter, 40% visible
METAR KALB 272051Z 25007KT 220V290 10SM FEW070 32/14 A2989 RMK AO2 SLP121 T03170139 56012
Pressure 29.89 in
Visibility 10.0 miles
Clouds Few 7000 ft
Heat Index 105 °F
Dew Point 65 °F
Humidity 31%
Rainfall 0.00 in
Snow Depth Not available.
5:42 AM 8:19 PM
Last Quarter, 40% visible
METAR KALB 272051Z 25007KT 220V290 10SM FEW070 32/14 A2989 RMK AO2 SLP121 T03170139 56012

10-Day Weather Forecast

Almanac

Astronomy

Jul. 27, 2016 Rise Set
Actual Time
Civil Twilight
Nautical Twilight
Astronomical Twilight
Moon
Length of Visible Light
Length of Day
Tomorrow will be .
, % of the Moon is Illuminated

Today's Extremes

State Highs State Lows

Community

WunderPhotos

Upload Photos

1,927,933 photos uploaded!

WunderBlog® & News

Nearby

Air Quality

  Air Quality AQ Index Pollutant
Not available.

Snow Depth

Station Depth Elevation

Earthquake Activity

City Distance Mag. Time & Date
Minimum magnitude displayed is 2.5.

Coastal Water Temperatures

Place Temperature

Stations

Nearby Weather Stations

Station Location Temp. Windchill Dew Point Humidity Wind Precip. Elev Updated Type
                   

Watches & Warnings

There are currently no watches in effect.